sensor_id;sensor_type;location;lat;lon;timestamp;P1;durP1;ratioP1;P2;durP2;ratioP2
9809;SDS011;4944;52.514;13.192;2022-12-07T00:01:05;7.87;;;7.07;;
9809;SDS011;4944;52.514;13.192;2022-12-07T00:03:33;9.13;;;6.80;;
9809;SDS011;4944;52.514;13.192;2022-12-07T00:06:00;7.67;;;6.77;;
9809;SDS011;4944;52.514;13.192;2022-12-07T00:08:29;7.97;;;7.17;;
9809;SDS011;4944;52.514;13.192;2022-12-07T00:11:00;8.27;;;7.33;;
9809;SDS011;4944;52.514;13.192;2022-12-07T00:13:28;8.37;;;6.60;;
9809;SDS011;4944;52.514;13.192;2022-12-07T00:15:55;7.37;;;6.67;;
9809;SDS011;4944;52.514;13.192;2022-12-07T00:18:21;7.97;;;6.10;;
9809;SDS011;4944;52.514;13.192;2022-12-07T00:20:48;6.90;;;6.20;;
9809;SDS011;4944;52.514;13.192;2022-12-07T00:23:15;6.57;;;5.40;;
9809;SDS011;4944;52.514;13.192;2022-12-07T00:25:43;5.53;;;5.07;;
9809;SDS011;4944;52.514;13.192;2022-12-07T00:28:10;5.17;;;4.60;;
9809;SDS011;4944;52.514;13.192;2022-12-07T00:30:37;5.30;;;4.80;;
9809;SDS011;4944;52.514;13.192;2022-12-07T00:33:04;4.97;;;4.57;;
9809;SDS011;4944;52.514;13.192;2022-12-07T00:35:31;5.80;;;5.20;;
9809;SDS011;4944;52.514;13.192;2022-12-07T00:37:58;5.40;;;4.90;;
9809;SDS011;4944;52.514;13.192;2022-12-07T00:40:25;4.87;;;4.57;;
9809;SDS011;4944;52.514;13.192;2022-12-07T00:42:53;5.00;;;4.60;;
9809;SDS011;4944;52.514;13.192;2022-12-07T00:45:20;5.13;;;4.63;;
9809;SDS011;4944;52.514;13.192;2022-12-07T00:47:46;4.77;;;4.37;;
9809;SDS011;4944;52.514;13.192;2022-12-07T00:50:13;4.83;;;4.43;;
9809;SDS011;4944;52.514;13.192;2022-12-07T00:52:40;4.97;;;4.57;;
9809;SDS011;4944;52.514;13.192;2022-12-07T00:55:07;4.40;;;4.00;;
9809;SDS011;4944;52.514;13.192;2022-12-07T00:57:34;5.40;;;5.00;;
9809;SDS011;4944;52.514;13.192;2022-12-07T01:00:03;5.53;;;5.03;;
9809;SDS011;4944;52.514;13.192;2022-12-07T01:02:30;4.70;;;4.37;;
9809;SDS011;4944;52.514;13.192;2022-12-07T01:04:57;4.47;;;4.17;;
9809;SDS011;4944;52.514;13.192;2022-12-07T01:07:24;4.77;;;4.37;;
9809;SDS011;4944;52.514;13.192;2022-12-07T01:09:51;4.80;;;4.40;;
9809;SDS011;4944;52.514;13.192;2022-12-07T01:12:18;4.33;;;3.93;;
9809;SDS011;4944;52.514;13.192;2022-12-07T01:14:45;4.97;;;4.60;;
9809;SDS011;4944;52.514;13.192;2022-12-07T01:17:13;4.60;;;4.30;;
9809;SDS011;4944;52.514;13.192;2022-12-07T01:19:40;3.80;;;3.60;;
9809;SDS011;4944;52.514;13.192;2022-12-07T01:22:07;4.23;;;3.90;;
9809;SDS011;4944;52.514;13.192;2022-12-07T01:24:34;4.30;;;4.00;;
9809;SDS011;4944;52.514;13.192;2022-12-07T01:27:01;4.13;;;3.73;;
9809;SDS011;4944;52.514;13.192;2022-12-07T01:29:27;4.17;;;3.87;;
9809;SDS011;4944;52.514;13.192;2022-12-07T01:31:54;3.83;;;3.53;;
9809;SDS011;4944;52.514;13.192;2022-12-07T01:34:22;4.23;;;3.93;;
9809;SDS011;4944;52.514;13.192;2022-12-07T01:36:49;4.50;;;4.20;;
9809;SDS011;4944;52.514;13.192;2022-12-07T01:39:16;3.90;;;3.60;;
9809;SDS011;4944;52.514;13.192;2022-12-07T01:41:43;3.43;;;3.20;;
9809;SDS011;4944;52.514;13.192;2022-12-07T01:44:11;4.30;;;3.90;;
9809;SDS011;4944;52.514;13.192;2022-12-07T01:46:43;4.27;;;3.97;;
9809;SDS011;4944;52.514;13.192;2022-12-07T01:49:12;4.47;;;4.13;;
9809;SDS011;4944;52.514;13.192;2022-12-07T01:51:46;3.83;;;3.60;;
9809;SDS011;4944;52.514;13.192;2022-12-07T01:54:15;4.07;;;3.77;;
9809;SDS011;4944;52.514;13.192;2022-12-07T01:56:45;4.43;;;4.10;;
9809;SDS011;4944;52.514;13.192;2022-12-07T01:59:16;4.67;;;4.27;;
9809;SDS011;4944;52.514;13.192;2022-12-07T02:01:46;3.90;;;3.67;;
9809;SDS011;4944;52.514;13.192;2022-12-07T02:04:12;4.30;;;3.93;;
9809;SDS011;4944;52.514;13.192;2022-12-07T02:06:40;3.37;;;3.17;;
9809;SDS011;4944;52.514;13.192;2022-12-07T02:09:10;4.20;;;3.90;;
9809;SDS011;4944;52.514;13.192;2022-12-07T02:11:38;4.57;;;4.17;;
9809;SDS011;4944;52.514;13.192;2022-12-07T02:14:07;4.60;;;4.20;;
9809;SDS011;4944;52.514;13.192;2022-12-07T02:16:35;4.50;;;4.10;;
9809;SDS011;4944;52.514;13.192;2022-12-07T02:19:23;4.20;;;3.90;;
9809;SDS011;4944;52.514;13.192;2022-12-07T02:22:11;4.87;;;4.47;;
9809;SDS011;4944;52.514;13.192;2022-12-07T02:25:02;4.20;;;3.87;;
9809;SDS011;4944;52.514;13.192;2022-12-07T02:27:36;4.57;;;4.23;;
9809;SDS011;4944;52.514;13.192;2022-12-07T02:30:12;4.13;;;3.83;;
9809;SDS011;4944;52.514;13.192;2022-12-07T02:32:42;4.97;;;4.57;;
9809;SDS011;4944;52.514;13.192;2022-12-07T02:35:15;4.80;;;4.40;;
9809;SDS011;4944;52.514;13.192;2022-12-07T02:37:48;4.90;;;4.50;;
9809;SDS011;4944;52.514;13.192;2022-12-07T02:40:22;5.00;;;4.50;;
9809;SDS011;4944;52.514;13.192;2022-12-07T02:42:55;5.10;;;4.70;;
9809;SDS011;4944;52.514;13.192;2022-12-07T02:45:28;5.93;;;5.20;;
9809;SDS011;4944;52.514;13.192;2022-12-07T02:47:58;6.03;;;5.30;;
9809;SDS011;4944;52.514;13.192;2022-12-07T02:50:26;5.73;;;4.87;;
9809;SDS011;4944;52.514;13.192;2022-12-07T02:52:53;6.43;;;5.40;;
9809;SDS011;4944;52.514;13.192;2022-12-07T02:55:22;5.90;;;5.30;;
9809;SDS011;4944;52.514;13.192;2022-12-07T03:00:56;5.80;;;5.27;;
9809;SDS011;4944;52.514;13.192;2022-12-07T03:03:30;7.93;;;6.03;;
9809;SDS011;4944;52.514;13.192;2022-12-07T03:06:00;5.57;;;5.07;;
9809;SDS011;4944;52.514;13.192;2022-12-07T03:08:39;6.07;;;5.47;;
9809;SDS011;4944;52.514;13.192;2022-12-07T03:11:14;7.03;;;6.33;;
9809;SDS011;4944;52.514;13.192;2022-12-07T03:13:48;7.90;;;6.60;;
9809;SDS011;4944;52.514;13.192;2022-12-07T03:16:24;7.27;;;6.47;;
9809;SDS011;4944;52.514;13.192;2022-12-07T03:18:53;6.60;;;6.00;;
9809;SDS011;4944;52.514;13.192;2022-12-07T03:21:23;7.77;;;6.90;;
9809;SDS011;4944;52.514;13.192;2022-12-07T03:23:53;9.30;;;6.57;;
9809;SDS011;4944;52.514;13.192;2022-12-07T03:26:23;7.10;;;6.40;;
9809;SDS011;4944;52.514;13.192;2022-12-07T03:28:57;7.27;;;6.53;;
9809;SDS011;4944;52.514;13.192;2022-12-07T03:31:32;7.83;;;6.67;;
9809;SDS011;4944;52.514;13.192;2022-12-07T03:34:03;7.53;;;6.73;;
9809;SDS011;4944;52.514;13.192;2022-12-07T03:36:38;7.77;;;6.97;;
9809;SDS011;4944;52.514;13.192;2022-12-07T03:39:08;7.40;;;6.70;;
9809;SDS011;4944;52.514;13.192;2022-12-07T03:41:43;8.80;;;6.83;;
9809;SDS011;4944;52.514;13.192;2022-12-07T03:44:10;10.47;;;7.17;;
9809;SDS011;4944;52.514;13.192;2022-12-07T03:46:42;8.93;;;7.40;;
9809;SDS011;4944;52.514;13.192;2022-12-07T03:49:12;8.57;;;7.57;;
9809;SDS011;4944;52.514;13.192;2022-12-07T03:51:49;8.90;;;7.30;;
9809;SDS011;4944;52.514;13.192;2022-12-07T03:54:22;9.87;;;7.40;;
9809;SDS011;4944;52.514;13.192;2022-12-07T03:56:52;8.00;;;7.20;;
9809;SDS011;4944;52.514;13.192;2022-12-07T03:59:21;8.43;;;7.47;;
9809;SDS011;4944;52.514;13.192;2022-12-07T04:01:52;10.13;;;7.83;;
9809;SDS011;4944;52.514;13.192;2022-12-07T04:04:20;11.10;;;8.30;;
9809;SDS011;4944;52.514;13.192;2022-12-07T04:06:47;12.10;;;8.53;;
9809;SDS011;4944;52.514;13.192;2022-12-07T04:09:14;9.80;;;7.97;;
9809;SDS011;4944;52.514;13.192;2022-12-07T04:11:41;10.13;;;8.20;;
9809;SDS011;4944;52.514;13.192;2022-12-07T04:14:08;10.80;;;8.83;;
9809;SDS011;4944;52.514;13.192;2022-12-07T04:16:44;12.30;;;9.13;;
9809;SDS011;4944;52.514;13.192;2022-12-07T04:19:13;11.27;;;9.17;;
9809;SDS011;4944;52.514;13.192;2022-12-07T04:21:40;12.87;;;9.33;;
9809;SDS011;4944;52.514;13.192;2022-12-07T04:24:07;13.97;;;9.40;;
9809;SDS011;4944;52.514;13.192;2022-12-07T04:26:34;13.33;;;9.70;;
9809;SDS011;4944;52.514;13.192;2022-12-07T04:29:01;13.33;;;9.60;;
9809;SDS011;4944;52.514;13.192;2022-12-07T04:31:28;13.73;;;10.10;;
9809;SDS011;4944;52.514;13.192;2022-12-07T04:33:55;14.93;;;10.47;;
9809;SDS011;4944;52.514;13.192;2022-12-07T04:36:24;12.33;;;10.03;;
9809;SDS011;4944;52.514;13.192;2022-12-07T04:38:52;14.80;;;10.37;;
9809;SDS011;4944;52.514;13.192;2022-12-07T04:41:19;14.23;;;10.57;;
9809;SDS011;4944;52.514;13.192;2022-12-07T04:43:51;15.77;;;11.80;;
9809;SDS011;4944;52.514;13.192;2022-12-07T04:46:19;15.73;;;10.87;;
9809;SDS011;4944;52.514;13.192;2022-12-07T04:48:46;17.27;;;11.23;;
9809;SDS011;4944;52.514;13.192;2022-12-07T04:51:13;14.97;;;11.07;;
9809;SDS011;4944;52.514;13.192;2022-12-07T04:53:43;16.50;;;12.17;;
9809;SDS011;4944;52.514;13.192;2022-12-07T04:56:10;17.67;;;11.87;;
9809;SDS011;4944;52.514;13.192;2022-12-07T04:58:36;16.83;;;12.33;;
9809;SDS011;4944;52.514;13.192;2022-12-07T05:01:03;18.47;;;12.83;;
9809;SDS011;4944;52.514;13.192;2022-12-07T05:03:30;17.20;;;12.17;;
9809;SDS011;4944;52.514;13.192;2022-12-07T05:05:57;18.47;;;12.07;;
9809;SDS011;4944;52.514;13.192;2022-12-07T05:08:24;18.47;;;13.00;;
9809;SDS011;4944;52.514;13.192;2022-12-07T05:10:52;16.93;;;11.93;;
9809;SDS011;4944;52.514;13.192;2022-12-07T05:13:19;19.30;;;12.73;;
9809;SDS011;4944;52.514;13.192;2022-12-07T05:15:46;17.80;;;12.57;;
9809;SDS011;4944;52.514;13.192;2022-12-07T05:18:13;18.20;;;12.10;;
9809;SDS011;4944;52.514;13.192;2022-12-07T05:20:40;20.83;;;13.37;;
9809;SDS011;4944;52.514;13.192;2022-12-07T05:23:08;19.50;;;13.47;;
9809;SDS011;4944;52.514;13.192;2022-12-07T05:25:35;21.67;;;13.13;;
9809;SDS011;4944;52.514;13.192;2022-12-07T05:28:03;21.07;;;13.57;;
9809;SDS011;4944;52.514;13.192;2022-12-07T05:30:30;20.27;;;13.47;;
9809;SDS011;4944;52.514;13.192;2022-12-07T05:32:58;21.97;;;14.70;;
9809;SDS011;4944;52.514;13.192;2022-12-07T05:35:25;22.63;;;14.60;;
9809;SDS011;4944;52.514;13.192;2022-12-07T05:37:52;19.70;;;13.53;;
9809;SDS011;4944;52.514;13.192;2022-12-07T05:40:18;21.93;;;14.23;;
9809;SDS011;4944;52.514;13.192;2022-12-07T05:42:45;22.20;;;13.67;;
9809;SDS011;4944;52.514;13.192;2022-12-07T05:45:13;22.60;;;14.77;;
9809;SDS011;4944;52.514;13.192;2022-12-07T05:47:40;21.70;;;13.97;;
9809;SDS011;4944;52.514;13.192;2022-12-07T05:50:07;20.37;;;13.70;;
9809;SDS011;4944;52.514;13.192;2022-12-07T05:52:34;22.20;;;14.37;;
9809;SDS011;4944;52.514;13.192;2022-12-07T05:55:01;24.03;;;14.30;;
9809;SDS011;4944;52.514;13.192;2022-12-07T05:57:27;20.73;;;14.50;;
9809;SDS011;4944;52.514;13.192;2022-12-07T05:59:54;22.57;;;14.27;;
9809;SDS011;4944;52.514;13.192;2022-12-07T06:02:21;23.73;;;14.37;;
9809;SDS011;4944;52.514;13.192;2022-12-07T06:04:48;25.43;;;15.20;;
9809;SDS011;4944;52.514;13.192;2022-12-07T06:07:15;25.67;;;14.47;;
9809;SDS011;4944;52.514;13.192;2022-12-07T06:09:43;25.47;;;15.40;;
9809;SDS011;4944;52.514;13.192;2022-12-07T06:12:10;28.93;;;15.30;;
9809;SDS011;4944;52.514;13.192;2022-12-07T06:14:55;24.17;;;14.73;;
9809;SDS011;4944;52.514;13.192;2022-12-07T06:17:24;21.70;;;13.57;;
9809;SDS011;4944;52.514;13.192;2022-12-07T06:19:51;22.43;;;13.83;;
9809;SDS011;4944;52.514;13.192;2022-12-07T06:22:17;20.87;;;13.77;;
9809;SDS011;4944;52.514;13.192;2022-12-07T06:24:44;23.73;;;14.40;;
9809;SDS011;4944;52.514;13.192;2022-12-07T06:27:14;24.53;;;15.07;;
9809;SDS011;4944;52.514;13.192;2022-12-07T06:29:41;27.73;;;14.50;;
9809;SDS011;4944;52.514;13.192;2022-12-07T06:32:07;24.80;;;15.50;;
9809;SDS011;4944;52.514;13.192;2022-12-07T06:34:36;25.50;;;15.07;;
9809;SDS011;4944;52.514;13.192;2022-12-07T06:37:03;26.53;;;15.90;;
9809;SDS011;4944;52.514;13.192;2022-12-07T06:39:29;25.30;;;16.60;;
9809;SDS011;4944;52.514;13.192;2022-12-07T06:41:57;27.07;;;15.23;;
9809;SDS011;4944;52.514;13.192;2022-12-07T06:44:24;24.43;;;15.07;;
9809;SDS011;4944;52.514;13.192;2022-12-07T06:46:51;23.83;;;15.60;;
9809;SDS011;4944;52.514;13.192;2022-12-07T06:49:18;28.60;;;16.13;;
9809;SDS011;4944;52.514;13.192;2022-12-07T06:51:47;25.43;;;15.40;;
9809;SDS011;4944;52.514;13.192;2022-12-07T06:54:14;26.63;;;14.93;;
9809;SDS011;4944;52.514;13.192;2022-12-07T06:56:41;26.17;;;15.50;;
9809;SDS011;4944;52.514;13.192;2022-12-07T06:59:08;24.57;;;15.30;;
9809;SDS011;4944;52.514;13.192;2022-12-07T07:01:35;25.73;;;15.63;;
9809;SDS011;4944;52.514;13.192;2022-12-07T07:04:03;26.50;;;15.77;;
9809;SDS011;4944;52.514;13.192;2022-12-07T07:06:30;24.10;;;14.83;;
9809;SDS011;4944;52.514;13.192;2022-12-07T07:08:58;24.93;;;15.90;;
9809;SDS011;4944;52.514;13.192;2022-12-07T07:11:25;23.73;;;15.13;;
9809;SDS011;4944;52.514;13.192;2022-12-07T07:13:52;26.27;;;15.10;;
9809;SDS011;4944;52.514;13.192;2022-12-07T07:16:22;25.80;;;14.80;;
9809;SDS011;4944;52.514;13.192;2022-12-07T07:18:49;23.90;;;15.03;;
9809;SDS011;4944;52.514;13.192;2022-12-07T07:21:15;21.57;;;14.37;;
9809;SDS011;4944;52.514;13.192;2022-12-07T07:23:42;19.93;;;13.97;;
9809;SDS011;4944;52.514;13.192;2022-12-07T07:26:10;20.87;;;13.53;;
9809;SDS011;4944;52.514;13.192;2022-12-07T07:28:38;23.13;;;13.63;;
9809;SDS011;4944;52.514;13.192;2022-12-07T07:31:04;22.13;;;13.43;;
9809;SDS011;4944;52.514;13.192;2022-12-07T07:33:31;19.77;;;13.50;;
9809;SDS011;4944;52.514;13.192;2022-12-07T07:35:58;21.90;;;13.77;;
9809;SDS011;4944;52.514;13.192;2022-12-07T07:38:25;17.63;;;12.80;;
9809;SDS011;4944;52.514;13.192;2022-12-07T07:40:52;16.73;;;11.37;;
9809;SDS011;4944;52.514;13.192;2022-12-07T07:43:20;15.33;;;10.13;;
9809;SDS011;4944;52.514;13.192;2022-12-07T07:45:47;11.53;;;9.13;;
9809;SDS011;4944;52.514;13.192;2022-12-07T07:48:14;16.70;;;9.30;;
9809;SDS011;4944;52.514;13.192;2022-12-07T07:50:41;14.73;;;9.13;;
9809;SDS011;4944;52.514;13.192;2022-12-07T07:53:07;11.50;;;8.90;;
9809;SDS011;4944;52.514;13.192;2022-12-07T07:55:34;13.47;;;9.23;;
9809;SDS011;4944;52.514;13.192;2022-12-07T07:58:01;11.40;;;8.73;;
9809;SDS011;4944;52.514;13.192;2022-12-07T08:00:29;10.40;;;7.60;;
9809;SDS011;4944;52.514;13.192;2022-12-07T08:02:56;9.17;;;7.30;;
9809;SDS011;4944;52.514;13.192;2022-12-07T08:05:24;9.33;;;6.67;;
9809;SDS011;4944;52.514;13.192;2022-12-07T08:07:51;11.10;;;7.00;;
9809;SDS011;4944;52.514;13.192;2022-12-07T08:10:18;8.00;;;5.53;;
9809;SDS011;4944;52.514;13.192;2022-12-07T08:12:45;6.00;;;5.37;;
9809;SDS011;4944;52.514;13.192;2022-12-07T08:15:25;6.90;;;5.07;;
9809;SDS011;4944;52.514;13.192;2022-12-07T08:17:54;5.97;;;4.93;;
9809;SDS011;4944;52.514;13.192;2022-12-07T08:20:21;3.90;;;3.50;;
9809;SDS011;4944;52.514;13.192;2022-12-07T08:22:48;3.60;;;3.30;;
9809;SDS011;4944;52.514;13.192;2022-12-07T08:25:15;3.60;;;3.30;;
9809;SDS011;4944;52.514;13.192;2022-12-07T08:27:42;3.03;;;2.83;;
9809;SDS011;4944;52.514;13.192;2022-12-07T08:30:09;2.10;;;2.00;;
9809;SDS011;4944;52.514;13.192;2022-12-07T08:32:36;1.73;;;1.63;;
9809;SDS011;4944;52.514;13.192;2022-12-07T08:35:05;1.80;;;1.70;;
9809;SDS011;4944;52.514;13.192;2022-12-07T08:37:33;2.63;;;1.97;;
9809;SDS011;4944;52.514;13.192;2022-12-07T08:40:00;12.47;;;2.70;;
9809;SDS011;4944;52.514;13.192;2022-12-07T08:42:27;3.43;;;2.00;;
9809;SDS011;4944;52.514;13.192;2022-12-07T08:44:55;4.07;;;2.30;;
9809;SDS011;4944;52.514;13.192;2022-12-07T08:47:23;1.87;;;1.77;;
9809;SDS011;4944;52.514;13.192;2022-12-07T08:49:50;8.00;;;2.43;;
9809;SDS011;4944;52.514;13.192;2022-12-07T08:52:20;2.53;;;1.87;;
9809;SDS011;4944;52.514;13.192;2022-12-07T08:54:47;2.10;;;1.70;;
9809;SDS011;4944;52.514;13.192;2022-12-07T08:57:14;1.70;;;1.60;;
9809;SDS011;4944;52.514;13.192;2022-12-07T08:59:41;1.90;;;1.80;;
9809;SDS011;4944;52.514;13.192;2022-12-07T09:02:08;2.37;;;2.17;;
9809;SDS011;4944;52.514;13.192;2022-12-07T09:04:35;2.10;;;1.90;;
9809;SDS011;4944;52.514;13.192;2022-12-07T09:07:02;2.03;;;1.93;;
9809;SDS011;4944;52.514;13.192;2022-12-07T09:09:31;2.93;;;2.10;;
9809;SDS011;4944;52.514;13.192;2022-12-07T09:11:58;2.20;;;2.00;;
9809;SDS011;4944;52.514;13.192;2022-12-07T09:14:25;2.77;;;2.07;;
9809;SDS011;4944;52.514;13.192;2022-12-07T09:16:52;1.87;;;1.77;;
9809;SDS011;4944;52.514;13.192;2022-12-07T09:19:19;2.13;;;1.90;;
9809;SDS011;4944;52.514;13.192;2022-12-07T09:21:46;1.50;;;1.40;;
9809;SDS011;4944;52.514;13.192;2022-12-07T09:24:13;1.60;;;1.40;;
9809;SDS011;4944;52.514;13.192;2022-12-07T09:26:41;1.50;;;1.40;;
9809;SDS011;4944;52.514;13.192;2022-12-07T09:29:09;1.13;;;1.00;;
9809;SDS011;4944;52.514;13.192;2022-12-07T09:31:36;2.30;;;1.40;;
9809;SDS011;4944;52.514;13.192;2022-12-07T09:34:03;2.90;;;1.33;;
9809;SDS011;4944;52.514;13.192;2022-12-07T09:36:31;1.60;;;1.50;;
9809;SDS011;4944;52.514;13.192;2022-12-07T09:38:58;1.40;;;1.40;;
9809;SDS011;4944;52.514;13.192;2022-12-07T09:41:25;1.80;;;1.70;;
9809;SDS011;4944;52.514;13.192;2022-12-07T09:43:57;1.83;;;1.73;;
9809;SDS011;4944;52.514;13.192;2022-12-07T09:46:29;1.50;;;1.40;;
9809;SDS011;4944;52.514;13.192;2022-12-07T09:49:01;1.50;;;1.40;;
9809;SDS011;4944;52.514;13.192;2022-12-07T09:51:28;1.67;;;1.57;;
9809;SDS011;4944;52.514;13.192;2022-12-07T09:53:56;1.70;;;1.60;;
9809;SDS011;4944;52.514;13.192;2022-12-07T09:56:24;1.50;;;1.40;;
9809;SDS011;4944;52.514;13.192;2022-12-07T09:58:51;2.13;;;1.70;;
9809;SDS011;4944;52.514;13.192;2022-12-07T10:01:27;2.53;;;1.70;;
9809;SDS011;4944;52.514;13.192;2022-12-07T10:03:58;2.33;;;1.50;;
9809;SDS011;4944;52.514;13.192;2022-12-07T10:06:28;2.40;;;2.20;;
9809;SDS011;4944;52.514;13.192;2022-12-07T10:08:55;2.10;;;1.83;;
9809;SDS011;4944;52.514;13.192;2022-12-07T10:11:22;2.93;;;1.70;;
9809;SDS011;4944;52.514;13.192;2022-12-07T10:13:49;1.73;;;1.63;;
9809;SDS011;4944;52.514;13.192;2022-12-07T10:19:18;2.90;;;2.47;;
9809;SDS011;4944;52.514;13.192;2022-12-07T10:22:01;2.93;;;2.60;;
9809;SDS011;4944;52.514;13.192;2022-12-07T10:24:31;2.30;;;2.10;;
9809;SDS011;4944;52.514;13.192;2022-12-07T10:26:58;2.30;;;2.20;;
9809;SDS011;4944;52.514;13.192;2022-12-07T10:29:28;2.00;;;1.90;;
9809;SDS011;4944;52.514;13.192;2022-12-07T10:31:58;2.20;;;2.10;;
9809;SDS011;4944;52.514;13.192;2022-12-07T10:34:27;2.20;;;2.10;;
9809;SDS011;4944;52.514;13.192;2022-12-07T10:37:07;2.23;;;2.03;;
9809;SDS011;4944;52.514;13.192;2022-12-07T10:39:42;2.47;;;2.23;;
9809;SDS011;4944;52.514;13.192;2022-12-07T10:42:17;2.50;;;2.33;;
9809;SDS011;4944;52.514;13.192;2022-12-07T10:44:45;2.37;;;2.27;;
9809;SDS011;4944;52.514;13.192;2022-12-07T10:47:23;2.80;;;2.57;;
9809;SDS011;4944;52.514;13.192;2022-12-07T10:50:11;2.40;;;2.30;;
9809;SDS011;4944;52.514;13.192;2022-12-07T10:52:58;2.60;;;2.50;;
9809;SDS011;4944;52.514;13.192;2022-12-07T10:55:48;2.50;;;2.30;;
9809;SDS011;4944;52.514;13.192;2022-12-07T10:58:36;2.77;;;2.57;;
9809;SDS011;4944;52.514;13.192;2022-12-07T11:01:17;2.37;;;2.27;;
9809;SDS011;4944;52.514;13.192;2022-12-07T11:03:53;2.60;;;2.40;;
9809;SDS011;4944;52.514;13.192;2022-12-07T11:06:33;3.50;;;2.33;;
9809;SDS011;4944;52.514;13.192;2022-12-07T11:09:08;3.27;;;2.20;;
9809;SDS011;4944;52.514;13.192;2022-12-07T11:12:02;3.37;;;2.60;;
9809;SDS011;4944;52.514;13.192;2022-12-07T11:14:36;2.50;;;2.30;;
9809;SDS011;4944;52.514;13.192;2022-12-07T11:17:12;2.30;;;2.17;;
9809;SDS011;4944;52.514;13.192;2022-12-07T11:19:49;2.40;;;2.30;;
9809;SDS011;4944;52.514;13.192;2022-12-07T11:22:26;3.10;;;2.80;;
9809;SDS011;4944;52.514;13.192;2022-12-07T11:25:02;2.63;;;2.43;;
9809;SDS011;4944;52.514;13.192;2022-12-07T11:27:45;3.90;;;2.33;;
9809;SDS011;4944;52.514;13.192;2022-12-07T11:30:30;3.07;;;2.87;;
9809;SDS011;4944;52.514;13.192;2022-12-07T11:33:12;3.77;;;2.80;;
9809;SDS011;4944;52.514;13.192;2022-12-07T11:35:48;2.93;;;2.57;;
9809;SDS011;4944;52.514;13.192;2022-12-07T11:38:33;2.73;;;2.53;;
9809;SDS011;4944;52.514;13.192;2022-12-07T11:41:06;2.30;;;2.20;;
9809;SDS011;4944;52.514;13.192;2022-12-07T11:43:50;2.73;;;2.13;;
9809;SDS011;4944;52.514;13.192;2022-12-07T11:46:22;2.53;;;1.90;;
9809;SDS011;4944;52.514;13.192;2022-12-07T11:48:55;2.73;;;2.10;;
9809;SDS011;4944;52.514;13.192;2022-12-07T11:51:30;3.77;;;2.00;;
9809;SDS011;4944;52.514;13.192;2022-12-07T11:54:02;7.83;;;2.20;;
9809;SDS011;4944;52.514;13.192;2022-12-07T11:56:38;1.60;;;1.47;;
9809;SDS011;4944;52.514;13.192;2022-12-07T11:59:07;3.27;;;1.97;;
9809;SDS011;4944;52.514;13.192;2022-12-07T12:01:42;3.23;;;1.60;;
9809;SDS011;4944;52.514;13.192;2022-12-07T12:04:23;3.20;;;1.50;;
9809;SDS011;4944;52.514;13.192;2022-12-07T12:06:58;1.63;;;1.53;;
9809;SDS011;4944;52.514;13.192;2022-12-07T12:09:26;3.93;;;1.90;;
9809;SDS011;4944;52.514;13.192;2022-12-07T12:15:04;1.60;;;1.50;;
9809;SDS011;4944;52.514;13.192;2022-12-07T12:17:56;2.10;;;1.47;;
9809;SDS011;4944;52.514;13.192;2022-12-07T12:20:38;1.87;;;1.60;;
9809;SDS011;4944;52.514;13.192;2022-12-07T12:23:11;3.97;;;1.83;;
9809;SDS011;4944;52.514;13.192;2022-12-07T12:25:42;2.73;;;2.00;;
9809;SDS011;4944;52.514;13.192;2022-12-07T12:28:24;4.53;;;2.20;;
9809;SDS011;4944;52.514;13.192;2022-12-07T12:31:05;3.17;;;2.67;;
9809;SDS011;4944;52.514;13.192;2022-12-07T12:33:35;3.03;;;2.40;;
9809;SDS011;4944;52.514;13.192;2022-12-07T12:36:20;2.20;;;1.87;;
9809;SDS011;4944;52.514;13.192;2022-12-07T12:41:57;2.83;;;1.67;;
9809;SDS011;4944;52.514;13.192;2022-12-07T12:44:38;2.13;;;1.70;;
9809;SDS011;4944;52.514;13.192;2022-12-07T12:50:15;2.07;;;1.50;;
9809;SDS011;4944;52.514;13.192;2022-12-07T12:52:54;1.53;;;1.43;;
9809;SDS011;4944;52.514;13.192;2022-12-07T13:04:23;2.40;;;1.67;;
9809;SDS011;4944;52.514;13.192;2022-12-07T13:10:39;1.83;;;1.47;;
9809;SDS011;4944;52.514;13.192;2022-12-07T13:13:30;1.67;;;1.60;;
9809;SDS011;4944;52.514;13.192;2022-12-07T13:19:01;2.53;;;1.70;;
9809;SDS011;4944;52.514;13.192;2022-12-07T13:21:41;4.03;;;1.70;;
9809;SDS011;4944;52.514;13.192;2022-12-07T13:24:10;2.40;;;1.50;;
9809;SDS011;4944;52.514;13.192;2022-12-07T13:26:41;2.87;;;1.60;;
9809;SDS011;4944;52.514;13.192;2022-12-07T13:29:11;2.50;;;1.60;;
9809;SDS011;4944;52.514;13.192;2022-12-07T13:31:39;3.40;;;1.50;;
9809;SDS011;4944;52.514;13.192;2022-12-07T13:36:58;1.73;;;1.50;;
9809;SDS011;4944;52.514;13.192;2022-12-07T13:39:26;2.53;;;1.77;;
9809;SDS011;4944;52.514;13.192;2022-12-07T13:41:54;1.60;;;1.37;;
9809;SDS011;4944;52.514;13.192;2022-12-07T13:44:23;5.10;;;1.70;;
9809;SDS011;4944;52.514;13.192;2022-12-07T13:46:53;2.40;;;1.40;;
9809;SDS011;4944;52.514;13.192;2022-12-07T13:49:32;2.20;;;1.50;;
9809;SDS011;4944;52.514;13.192;2022-12-07T13:52:11;1.40;;;1.30;;
9809;SDS011;4944;52.514;13.192;2022-12-07T13:54:44;3.53;;;1.60;;
9809;SDS011;4944;52.514;13.192;2022-12-07T13:57:13;2.27;;;1.67;;
9809;SDS011;4944;52.514;13.192;2022-12-07T13:59:40;1.70;;;1.50;;
9809;SDS011;4944;52.514;13.192;2022-12-07T14:02:17;4.30;;;1.80;;
9809;SDS011;4944;52.514;13.192;2022-12-07T14:04:47;2.63;;;1.57;;
9809;SDS011;4944;52.514;13.192;2022-12-07T14:07:19;3.07;;;1.73;;
9809;SDS011;4944;52.514;13.192;2022-12-07T14:09:55;1.57;;;1.47;;
9809;SDS011;4944;52.514;13.192;2022-12-07T14:12:24;3.00;;;1.60;;
9809;SDS011;4944;52.514;13.192;2022-12-07T14:14:51;4.50;;;1.57;;
9809;SDS011;4944;52.514;13.192;2022-12-07T14:17:20;2.77;;;1.40;;
9809;SDS011;4944;52.514;13.192;2022-12-07T14:19:51;2.63;;;1.53;;
9809;SDS011;4944;52.514;13.192;2022-12-07T14:22:27;3.13;;;1.70;;
9809;SDS011;4944;52.514;13.192;2022-12-07T14:27:50;1.53;;;1.30;;
9809;SDS011;4944;52.514;13.192;2022-12-07T14:30:21;3.00;;;1.60;;
9809;SDS011;4944;52.514;13.192;2022-12-07T14:32:50;3.87;;;1.90;;
9809;SDS011;4944;52.514;13.192;2022-12-07T14:35:20;3.03;;;1.33;;
9809;SDS011;4944;52.514;13.192;2022-12-07T14:37:48;4.70;;;1.70;;
9809;SDS011;4944;52.514;13.192;2022-12-07T14:40:16;5.20;;;1.70;;
9809;SDS011;4944;52.514;13.192;2022-12-07T14:42:45;4.40;;;1.87;;
9809;SDS011;4944;52.514;13.192;2022-12-07T14:45:14;2.40;;;1.60;;
9809;SDS011;4944;52.514;13.192;2022-12-07T14:47:43;2.27;;;1.90;;
9809;SDS011;4944;52.514;13.192;2022-12-07T14:50:11;3.20;;;1.90;;
9809;SDS011;4944;52.514;13.192;2022-12-07T14:52:40;3.07;;;1.80;;
9809;SDS011;4944;52.514;13.192;2022-12-07T14:55:20;2.43;;;1.53;;
9809;SDS011;4944;52.514;13.192;2022-12-07T14:57:50;3.67;;;1.33;;
9809;SDS011;4944;52.514;13.192;2022-12-07T15:00:17;6.40;;;1.80;;
9809;SDS011;4944;52.514;13.192;2022-12-07T15:02:46;5.30;;;1.43;;
9809;SDS011;4944;52.514;13.192;2022-12-07T15:05:13;3.10;;;1.40;;
9809;SDS011;4944;52.514;13.192;2022-12-07T15:07:42;3.27;;;1.50;;
9809;SDS011;4944;52.514;13.192;2022-12-07T15:10:13;7.43;;;1.80;;
9809;SDS011;4944;52.514;13.192;2022-12-07T15:12:43;2.53;;;1.23;;
9809;SDS011;4944;52.514;13.192;2022-12-07T15:15:10;1.33;;;1.10;;
9809;SDS011;4944;52.514;13.192;2022-12-07T15:17:37;3.77;;;1.80;;
9809;SDS011;4944;52.514;13.192;2022-12-07T15:20:04;1.73;;;1.33;;
9809;SDS011;4944;52.514;13.192;2022-12-07T15:22:33;2.13;;;1.30;;
9809;SDS011;4944;52.514;13.192;2022-12-07T15:25:02;2.50;;;1.60;;
9809;SDS011;4944;52.514;13.192;2022-12-07T15:27:31;2.53;;;1.60;;
9809;SDS011;4944;52.514;13.192;2022-12-07T15:29:57;1.53;;;1.23;;
9809;SDS011;4944;52.514;13.192;2022-12-07T15:32:24;3.03;;;1.40;;
9809;SDS011;4944;52.514;13.192;2022-12-07T15:34:51;4.67;;;1.50;;
9809;SDS011;4944;52.514;13.192;2022-12-07T15:37:18;2.53;;;1.60;;
9809;SDS011;4944;52.514;13.192;2022-12-07T15:39:45;3.30;;;1.60;;
9809;SDS011;4944;52.514;13.192;2022-12-07T15:42:13;6.03;;;1.60;;
9809;SDS011;4944;52.514;13.192;2022-12-07T15:44:40;5.23;;;1.83;;
9809;SDS011;4944;52.514;13.192;2022-12-07T15:47:36;4.23;;;2.77;;
9809;SDS011;4944;52.514;13.192;2022-12-07T15:50:05;2.97;;;1.53;;